sensor_id;sensor_type;location;lat;lon;timestamp;pressure;altitude;pressure_sealevel;temperature;humidity
6433;BME280;3249;42.690;23.260;2023-04-09T00:01:08;94427.91;;;6.14;100.00
6433;BME280;3249;42.690;23.260;2023-04-09T00:03:37;94431.28;;;6.21;100.00
6433;BME280;3249;42.690;23.260;2023-04-09T00:06:06;94431.91;;;6.23;100.00
6433;BME280;3249;42.690;23.260;2023-04-09T00:08:35;94437.41;;;6.27;100.00
6433;BME280;3249;42.690;23.260;2023-04-09T00:11:07;94432.66;;;6.45;100.00
6433;BME280;3249;42.690;23.260;2023-04-09T00:13:36;94441.28;;;6.44;100.00
6433;BME280;3249;42.690;23.260;2023-04-09T00:16:05;94443.28;;;6.48;100.00
6433;BME280;3249;42.690;23.260;2023-04-09T00:18:34;94449.16;;;6.42;100.00
6433;BME280;3249;42.690;23.260;2023-04-09T00:21:03;94418.84;;;6.39;100.00
6433;BME280;3249;42.690;23.260;2023-04-09T00:23:33;94442.16;;;6.57;100.00
6433;BME280;3249;42.690;23.260;2023-04-09T00:26:02;94437.03;;;6.57;100.00
6433;BME280;3249;42.690;23.260;2023-04-09T00:28:34;94447.72;;;6.67;100.00
6433;BME280;3249;42.690;23.260;2023-04-09T00:31:04;94449.34;;;6.75;100.00
6433;BME280;3249;42.690;23.260;2023-04-09T00:33:33;94453.06;;;6.72;100.00
6433;BME280;3249;42.690;23.260;2023-04-09T00:36:02;94446.59;;;6.76;100.00
6433;BME280;3249;42.690;23.260;2023-04-09T00:38:30;94443.75;;;6.58;100.00
6433;BME280;3249;42.690;23.260;2023-04-09T00:40:59;94454.22;;;6.70;100.00
6433;BME280;3249;42.690;23.260;2023-04-09T00:43:28;94448.09;;;6.64;100.00
6433;BME280;3249;42.690;23.260;2023-04-09T00:46:00;94453.69;;;6.74;100.00
6433;BME280;3249;42.690;23.260;2023-04-09T00:48:30;94454.88;;;6.78;100.00
6433;BME280;3249;42.690;23.260;2023-04-09T00:50:59;94453.09;;;6.79;100.00
6433;BME280;3249;42.690;23.260;2023-04-09T00:53:28;94440.69;;;6.76;100.00
6433;BME280;3249;42.690;23.260;2023-04-09T00:55:57;94436.16;;;6.71;100.00
6433;BME280;3249;42.690;23.260;2023-04-09T00:58:26;94445.59;;;6.77;100.00
6433;BME280;3249;42.690;23.260;2023-04-09T01:00:55;94452.16;;;6.86;100.00
6433;BME280;3249;42.690;23.260;2023-04-09T01:03:27;94439.34;;;6.80;100.00
6433;BME280;3249;42.690;23.260;2023-04-09T01:06:03;94436.53;;;6.75;100.00
6433;BME280;3249;42.690;23.260;2023-04-09T01:08:40;94442.34;;;6.56;100.00
6433;BME280;3249;42.690;23.260;2023-04-09T01:11:22;94448.94;;;6.71;100.00
6433;BME280;3249;42.690;23.260;2023-04-09T01:13:58;94452.88;;;6.74;100.00
6433;BME280;3249;42.690;23.260;2023-04-09T01:16:30;94453.88;;;6.73;100.00
6433;BME280;3249;42.690;23.260;2023-04-09T01:19:18;94453.69;;;6.74;100.00
6433;BME280;3249;42.690;23.260;2023-04-09T01:21:53;94452.06;;;6.73;100.00
6433;BME280;3249;42.690;23.260;2023-04-09T01:24:35;94455.19;;;6.62;100.00
6433;BME280;3249;42.690;23.260;2023-04-09T01:27:13;94452.47;;;6.70;100.00
6433;BME280;3249;42.690;23.260;2023-04-09T01:29:55;94445.75;;;6.69;100.00
6433;BME280;3249;42.690;23.260;2023-04-09T01:32:25;94458.84;;;6.81;100.00
6433;BME280;3249;42.690;23.260;2023-04-09T01:34:57;94452.50;;;6.77;100.00
6433;BME280;3249;42.690;23.260;2023-04-09T01:37:27;94457.44;;;6.78;100.00
6433;BME280;3249;42.690;23.260;2023-04-09T01:39:57;94448.78;;;6.79;100.00
6433;BME280;3249;42.690;23.260;2023-04-09T01:42:27;94452.78;;;6.54;100.00
6433;BME280;3249;42.690;23.260;2023-04-09T01:45:00;94452.78;;;6.54;100.00
6433;BME280;3249;42.690;23.260;2023-04-09T01:47:30;94453.84;;;6.66;100.00
6433;BME280;3249;42.690;23.260;2023-04-09T01:50:00;94449.72;;;6.72;100.00
6433;BME280;3249;42.690;23.260;2023-04-09T01:52:30;94455.91;;;6.84;100.00
6433;BME280;3249;42.690;23.260;2023-04-09T01:54:59;94453.94;;;6.86;100.00
6433;BME280;3249;42.690;23.260;2023-04-09T01:57:29;94456.81;;;6.76;100.00
6433;BME280;3249;42.690;23.260;2023-04-09T02:00:01;94447.72;;;6.67;100.00
6433;BME280;3249;42.690;23.260;2023-04-09T02:02:45;94450.84;;;6.63;100.00
6433;BME280;3249;42.690;23.260;2023-04-09T02:05:18;94451.34;;;6.79;100.00
6433;BME280;3249;42.690;23.260;2023-04-09T02:07:53;94455.66;;;6.79;100.00
6433;BME280;3249;42.690;23.260;2023-04-09T02:10:25;94449.78;;;6.23;100.00
6433;BME280;3249;42.690;23.260;2023-04-09T02:12:57;94448.16;;;6.43;100.00
6433;BME280;3249;42.690;23.260;2023-04-09T02:15:31;94449.09;;;6.63;100.00
6433;BME280;3249;42.690;23.260;2023-04-09T02:18:02;94449.97;;;6.49;100.00
6433;BME280;3249;42.690;23.260;2023-04-09T02:20:31;94442.09;;;6.51;100.00
6433;BME280;3249;42.690;23.260;2023-04-09T02:23:00;94449.44;;;6.60;100.00
6433;BME280;3249;42.690;23.260;2023-04-09T02:25:29;94445.72;;;6.63;100.00
6433;BME280;3249;42.690;23.260;2023-04-09T02:27:59;94432.72;;;6.58;100.00
6433;BME280;3249;42.690;23.260;2023-04-09T02:30:30;94448.06;;;6.58;100.00
6433;BME280;3249;42.690;23.260;2023-04-09T02:32:59;94448.72;;;6.66;100.00
6433;BME280;3249;42.690;23.260;2023-04-09T02:35:29;94446.38;;;6.71;100.00
6433;BME280;3249;42.690;23.260;2023-04-09T02:37:58;94448.97;;;6.78;100.00
6433;BME280;3249;42.690;23.260;2023-04-09T02:40:27;94445.41;;;6.79;100.00
6433;BME280;3249;42.690;23.260;2023-04-09T02:42:56;94414.78;;;6.51;100.00
6433;BME280;3249;42.690;23.260;2023-04-09T02:45:25;94444.66;;;6.78;100.00
6433;BME280;3249;42.690;23.260;2023-04-09T02:47:57;94445.03;;;6.75;100.00
6433;BME280;3249;42.690;23.260;2023-04-09T02:50:27;94441.47;;;6.76;100.00
6433;BME280;3249;42.690;23.260;2023-04-09T02:52:56;94439.72;;;6.49;100.00
6433;BME280;3249;42.690;23.260;2023-04-09T02:55:25;94423.84;;;6.54;100.00
6433;BME280;3249;42.690;23.260;2023-04-09T02:57:54;94380.78;;;6.23;100.00
6433;BME280;3249;42.690;23.260;2023-04-09T03:00:23;94437.44;;;6.54;100.00
6433;BME280;3249;42.690;23.260;2023-04-09T03:02:53;94435.63;;;6.55;100.00
6433;BME280;3249;42.690;23.260;2023-04-09T03:05:25;94438.19;;;6.55;100.00
6433;BME280;3249;42.690;23.260;2023-04-09T03:07:55;94435.81;;;6.53;100.00
6433;BME280;3249;42.690;23.260;2023-04-09T03:10:23;94442.09;;;6.51;100.00
6433;BME280;3249;42.690;23.260;2023-04-09T03:12:53;94439.72;;;6.49;100.00
6433;BME280;3249;42.690;23.260;2023-04-09T03:15:21;94435.22;;;6.24;100.00
6433;BME280;3249;42.690;23.260;2023-04-09T03:17:51;94433.56;;;6.10;100.00
6433;BME280;3249;42.690;23.260;2023-04-09T03:20:20;94426.75;;;5.96;100.00
6433;BME280;3249;42.690;23.260;2023-04-09T03:22:51;94427.56;;;5.96;100.00
6433;BME280;3249;42.690;23.260;2023-04-09T03:25:28;94435.88;;;6.05;100.00
6433;BME280;3249;42.690;23.260;2023-04-09T03:28:00;94432.44;;;5.91;100.00
6433;BME280;3249;42.690;23.260;2023-04-09T03:30:37;94429.47;;;5.52;100.00
6433;BME280;3249;42.690;23.260;2023-04-09T03:33:06;94419.91;;;5.40;100.00
6433;BME280;3249;42.690;23.260;2023-04-09T03:35:46;94424.19;;;5.33;100.00
6433;BME280;3249;42.690;23.260;2023-04-09T03:38:20;94424.38;;;5.31;100.00
6433;BME280;3249;42.690;23.260;2023-04-09T03:40:50;94428.97;;;5.42;100.00
6433;BME280;3249;42.690;23.260;2023-04-09T03:43:19;94434.06;;;5.42;100.00
6433;BME280;3249;42.690;23.260;2023-04-09T03:45:51;94413.88;;;5.41;100.00
6433;BME280;3249;42.690;23.260;2023-04-09T03:48:25;94429.34;;;5.39;100.00
6433;BME280;3249;42.690;23.260;2023-04-09T03:50:56;94429.06;;;5.49;100.00
6433;BME280;3249;42.690;23.260;2023-04-09T03:53:36;94436.16;;;5.53;100.00
6433;BME280;3249;42.690;23.260;2023-04-09T03:56:06;94437.00;;;5.39;100.00
6433;BME280;3249;42.690;23.260;2023-04-09T03:58:36;94439.91;;;5.36;100.00
6433;BME280;3249;42.690;23.260;2023-04-09T04:01:07;94440.41;;;5.46;100.00
6433;BME280;3249;42.690;23.260;2023-04-09T04:03:42;94445.03;;;5.36;100.00
6433;BME280;3249;42.690;23.260;2023-04-09T04:06:21;94434.28;;;5.41;100.00
6433;BME280;3249;42.690;23.260;2023-04-09T04:09:05;94447.19;;;5.54;100.00
6433;BME280;3249;42.690;23.260;2023-04-09T04:11:49;94404.16;;;5.15;100.00
6433;BME280;3249;42.690;23.260;2023-04-09T04:14:21;94438.56;;;5.19;100.00
6433;BME280;3249;42.690;23.260;2023-04-09T04:16:56;94446.81;;;5.21;100.00
6433;BME280;3249;42.690;23.260;2023-04-09T04:19:29;94438.38;;;5.06;100.00
6433;BME280;3249;42.690;23.260;2023-04-09T04:21:59;94440.84;;;5.14;100.00
6433;BME280;3249;42.690;23.260;2023-04-09T04:24:33;94445.75;;;5.16;100.00
6433;BME280;3249;42.690;23.260;2023-04-09T04:27:03;94441.44;;;5.31;100.00
6433;BME280;3249;42.690;23.260;2023-04-09T04:29:34;94443.44;;;5.35;100.00
6433;BME280;3249;42.690;23.260;2023-04-09T04:32:12;94439.34;;;5.20;100.00
6433;BME280;3249;42.690;23.260;2023-04-09T04:34:42;94447.84;;;5.27;100.00
6433;BME280;3249;42.690;23.260;2023-04-09T04:37:19;94438.81;;;5.45;100.00
6433;BME280;3249;42.690;23.260;2023-04-09T04:39:55;94451.97;;;5.63;100.00
6433;BME280;3249;42.690;23.260;2023-04-09T04:42:24;94448.44;;;5.64;100.00
6433;BME280;3249;42.690;23.260;2023-04-09T04:44:53;94451.06;;;5.71;100.00
6433;BME280;3249;42.690;23.260;2023-04-09T04:47:43;94455.53;;;5.83;100.00
6433;BME280;3249;42.690;23.260;2023-04-09T04:50:13;94425.72;;;5.69;100.00
6433;BME280;3249;42.690;23.260;2023-04-09T04:52:53;94457.66;;;6.01;100.00
6433;BME280;3249;42.690;23.260;2023-04-09T04:55:28;94457.53;;;6.09;100.00
6433;BME280;3249;42.690;23.260;2023-04-09T04:58:00;94461.66;;;6.10;100.00
6433;BME280;3249;42.690;23.260;2023-04-09T05:00:37;94453.91;;;5.97;100.00
6433;BME280;3249;42.690;23.260;2023-04-09T05:03:07;94464.63;;;6.13;100.00
6433;BME280;3249;42.690;23.260;2023-04-09T05:06:01;94456.78;;;6.15;100.00
6433;BME280;3249;42.690;23.260;2023-04-09T05:08:38;94460.47;;;6.33;100.00
6433;BME280;3249;42.690;23.260;2023-04-09T05:11:13;94450.16;;;6.20;100.00
6433;BME280;3249;42.690;23.260;2023-04-09T05:13:45;94457.63;;;6.49;100.00
6433;BME280;3249;42.690;23.260;2023-04-09T05:16:17;94461.56;;;6.79;100.00
6433;BME280;3249;42.690;23.260;2023-04-09T05:18:53;94461.56;;;6.79;100.00
6433;BME280;3249;42.690;23.260;2023-04-09T05:21:22;94454.78;;;6.65;100.00
6433;BME280;3249;42.690;23.260;2023-04-09T05:23:54;94459.31;;;6.63;100.00
6433;BME280;3249;42.690;23.260;2023-04-09T05:26:27;94455.25;;;6.75;100.00
6433;BME280;3249;42.690;23.260;2023-04-09T05:28:57;94458.28;;;6.58;100.00
6433;BME280;3249;42.690;23.260;2023-04-09T05:31:26;94456.41;;;6.73;100.00
6433;BME280;3249;42.690;23.260;2023-04-09T05:34:01;94464.94;;;6.52;100.00
6433;BME280;3249;42.690;23.260;2023-04-09T05:36:41;94453.72;;;6.53;100.00
6433;BME280;3249;42.690;23.260;2023-04-09T05:39:10;94449.88;;;6.36;100.00
6433;BME280;3249;42.690;23.260;2023-04-09T05:41:42;94462.06;;;6.34;100.00
6433;BME280;3249;42.690;23.260;2023-04-09T05:44:27;94465.22;;;6.36;100.00
6433;BME280;3249;42.690;23.260;2023-04-09T05:47:11;94468.63;;;6.43;100.00
6433;BME280;3249;42.690;23.260;2023-04-09T05:49:56;94460.31;;;6.14;100.00
6433;BME280;3249;42.690;23.260;2023-04-09T05:52:26;94465.13;;;6.23;100.00
6433;BME280;3249;42.690;23.260;2023-04-09T05:54:56;94458.38;;;6.16;100.00
6433;BME280;3249;42.690;23.260;2023-04-09T05:57:40;94458.22;;;6.24;100.00
6433;BME280;3249;42.690;23.260;2023-04-09T06:00:11;94457.78;;;6.14;100.00
6433;BME280;3249;42.690;23.260;2023-04-09T06:02:45;94452.13;;;6.18;100.00
6433;BME280;3249;42.690;23.260;2023-04-09T06:05:15;94463.31;;;6.45;100.00
6433;BME280;3249;42.690;23.260;2023-04-09T06:07:45;94458.97;;;6.45;100.00
6433;BME280;3249;42.690;23.260;2023-04-09T06:10:14;94461.09;;;6.69;100.00
6433;BME280;3249;42.690;23.260;2023-04-09T06:12:47;94459.06;;;6.92;100.00
6433;BME280;3249;42.690;23.260;2023-04-09T06:15:16;94460.63;;;7.27;100.00
6433;BME280;3249;42.690;23.260;2023-04-09T06:17:46;94479.31;;;7.21;100.00
6433;BME280;3249;42.690;23.260;2023-04-09T06:20:15;94442.31;;;7.30;100.00
6433;BME280;3249;42.690;23.260;2023-04-09T06:22:44;94468.06;;;7.69;100.00
6433;BME280;3249;42.690;23.260;2023-04-09T06:25:13;94477.75;;;7.93;100.00
6433;BME280;3249;42.690;23.260;2023-04-09T06:27:42;94472.78;;;7.72;100.00
6433;BME280;3249;42.690;23.260;2023-04-09T06:30:14;94473.41;;;7.87;100.00
6433;BME280;3249;42.690;23.260;2023-04-09T06:32:43;94472.66;;;8.19;100.00
6433;BME280;3249;42.690;23.260;2023-04-09T06:35:13;94471.50;;;8.28;100.00
6433;BME280;3249;42.690;23.260;2023-04-09T06:37:42;94461.66;;;8.25;100.00
6433;BME280;3249;42.690;23.260;2023-04-09T06:40:12;94479.22;;;8.41;100.00
6433;BME280;3249;42.690;23.260;2023-04-09T06:42:42;94479.59;;;8.51;100.00
6433;BME280;3249;42.690;23.260;2023-04-09T06:45:29;94496.56;;;8.39;100.00
6433;BME280;3249;42.690;23.260;2023-04-09T06:47:58;94477.63;;;8.27;100.00
6433;BME280;3249;42.690;23.260;2023-04-09T06:50:28;94490.25;;;8.35;100.00
6433;BME280;3249;42.690;23.260;2023-04-09T06:52:57;94469.47;;;7.91;100.00
6433;BME280;3249;42.690;23.260;2023-04-09T06:55:26;94489.94;;;7.85;100.00
6433;BME280;3249;42.690;23.260;2023-04-09T06:57:55;94480.50;;;7.92;100.00
6433;BME280;3249;42.690;23.260;2023-04-09T07:00:24;94487.84;;;8.14;100.00
6433;BME280;3249;42.690;23.260;2023-04-09T07:02:55;94490.03;;;8.50;100.00
6433;BME280;3249;42.690;23.260;2023-04-09T07:05:25;94497.53;;;8.45;100.00
6433;BME280;3249;42.690;23.260;2023-04-09T07:07:53;94495.00;;;8.64;100.00
6433;BME280;3249;42.690;23.260;2023-04-09T07:10:22;94497.53;;;8.84;100.00
6433;BME280;3249;42.690;23.260;2023-04-09T07:12:51;94490.63;;;8.71;100.00
6433;BME280;3249;42.690;23.260;2023-04-09T07:15:20;94497.31;;;8.66;100.00
6433;BME280;3249;42.690;23.260;2023-04-09T07:17:49;94484.50;;;8.85;100.00
6433;BME280;3249;42.690;23.260;2023-04-09T07:20:21;94499.53;;;8.49;100.00
6433;BME280;3249;42.690;23.260;2023-04-09T07:22:50;94489.25;;;8.23;100.00
6433;BME280;3249;42.690;23.260;2023-04-09T07:25:19;94498.50;;;8.24;100.00
6433;BME280;3249;42.690;23.260;2023-04-09T07:27:48;94492.81;;;8.22;100.00
6433;BME280;3249;42.690;23.260;2023-04-09T07:30:17;94495.91;;;8.05;100.00
6433;BME280;3249;42.690;23.260;2023-04-09T07:32:46;94493.94;;;8.07;100.00
6433;BME280;3249;42.690;23.260;2023-04-09T07:35:15;94495.38;;;8.29;100.00
6433;BME280;3249;42.690;23.260;2023-04-09T07:37:46;94496.75;;;8.38;100.00
6433;BME280;3249;42.690;23.260;2023-04-09T07:40:16;94498.94;;;8.67;100.00
6433;BME280;3249;42.690;23.260;2023-04-09T07:42:45;94500.31;;;8.50;100.00
6433;BME280;3249;42.690;23.260;2023-04-09T07:45:14;94503.84;;;8.88;100.00
6433;BME280;3249;42.690;23.260;2023-04-09T07:47:43;94507.75;;;9.10;100.00
6433;BME280;3249;42.690;23.260;2023-04-09T07:50:12;94502.63;;;9.10;100.00
6433;BME280;3249;42.690;23.260;2023-04-09T07:52:41;94505.94;;;9.30;100.00
6433;BME280;3249;42.690;23.260;2023-04-09T07:55:13;94493.88;;;9.24;100.00
6433;BME280;3249;42.690;23.260;2023-04-09T07:57:43;94505.94;;;9.17;100.00
6433;BME280;3249;42.690;23.260;2023-04-09T08:00:14;94496.28;;;9.12;100.00
6433;BME280;3249;42.690;23.260;2023-04-09T08:02:44;94492.13;;;9.18;100.00
6433;BME280;3249;42.690;23.260;2023-04-09T08:05:13;94514.00;;;9.33;100.00
6433;BME280;3249;42.690;23.260;2023-04-09T08:07:42;94503.97;;;9.19;100.00
6433;BME280;3249;42.690;23.260;2023-04-09T08:10:14;94513.78;;;9.41;100.00
6433;BME280;3249;42.690;23.260;2023-04-09T08:12:43;94497.97;;;9.44;100.00
6433;BME280;3249;42.690;23.260;2023-04-09T08:15:13;94511.50;;;9.07;100.00
6433;BME280;3249;42.690;23.260;2023-04-09T08:17:44;94488.56;;;9.19;100.00
6433;BME280;3249;42.690;23.260;2023-04-09T08:20:13;94517.84;;;9.69;100.00
6433;BME280;3249;42.690;23.260;2023-04-09T08:22:42;94517.44;;;10.03;100.00
6433;BME280;3249;42.690;23.260;2023-04-09T08:25:14;94505.53;;;10.15;100.00
6433;BME280;3249;42.690;23.260;2023-04-09T08:27:43;94486.63;;;9.58;100.00
6433;BME280;3249;42.690;23.260;2023-04-09T08:30:13;94489.41;;;9.57;100.00
6433;BME280;3249;42.690;23.260;2023-04-09T08:32:42;94502.22;;;9.70;100.00
6433;BME280;3249;42.690;23.260;2023-04-09T08:35:12;94508.97;;;9.58;100.00
6433;BME280;3249;42.690;23.260;2023-04-09T08:37:44;94507.50;;;9.31;100.00
6433;BME280;3249;42.690;23.260;2023-04-09T08:40:17;94492.88;;;9.25;100.00
6433;BME280;3249;42.690;23.260;2023-04-09T08:42:50;94499.44;;;9.14;100.00
6433;BME280;3249;42.690;23.260;2023-04-09T08:45:22;94502.63;;;8.97;100.00
6433;BME280;3249;42.690;23.260;2023-04-09T08:47:52;94496.72;;;8.96;100.00
6433;BME280;3249;42.690;23.260;2023-04-09T08:50:24;94497.06;;;9.06;100.00
6433;BME280;3249;42.690;23.260;2023-04-09T08:52:57;94483.31;;;8.81;100.00
6433;BME280;3249;42.690;23.260;2023-04-09T08:55:29;94485.88;;;8.88;100.00
6433;BME280;3249;42.690;23.260;2023-04-09T08:57:59;94494.53;;;9.00;100.00
6433;BME280;3249;42.690;23.260;2023-04-09T09:00:28;94490.75;;;9.22;100.00
6433;BME280;3249;42.690;23.260;2023-04-09T09:03:01;94485.59;;;9.15;100.00
6433;BME280;3249;42.690;23.260;2023-04-09T09:05:35;94472.13;;;9.26;100.00
6433;BME280;3249;42.690;23.260;2023-04-09T09:08:08;94487.63;;;9.00;100.00
6433;BME280;3249;42.690;23.260;2023-04-09T09:10:44;94497.91;;;9.00;100.00
6433;BME280;3249;42.690;23.260;2023-04-09T09:15:47;94471.34;;;9.19;100.00
6433;BME280;3249;42.690;23.260;2023-04-09T09:18:20;94466.63;;;9.23;100.00
6433;BME280;3249;42.690;23.260;2023-04-09T09:20:49;94495.41;;;9.31;100.00
6433;BME280;3249;42.690;23.260;2023-04-09T09:23:33;94475.88;;;9.30;100.00
6433;BME280;3249;42.690;23.260;2023-04-09T09:26:13;94462.66;;;9.27;100.00
6433;BME280;3249;42.690;23.260;2023-04-09T09:32:18;94488.41;;;8.94;100.00
6433;BME280;3249;42.690;23.260;2023-04-09T09:34:57;94478.53;;;8.91;100.00
6433;BME280;3249;42.690;23.260;2023-04-09T09:37:27;94475.19;;;8.97;100.00
6433;BME280;3249;42.690;23.260;2023-04-09T09:39:56;94458.81;;;8.92;100.00
6433;BME280;3249;42.690;23.260;2023-04-09T09:42:28;94466.53;;;9.42;100.00
6433;BME280;3249;42.690;23.260;2023-04-09T09:44:57;94473.25;;;9.43;100.00
6433;BME280;3249;42.690;23.260;2023-04-09T09:47:28;94456.31;;;9.29;100.00
6433;BME280;3249;42.690;23.260;2023-04-09T09:52:48;94431.47;;;9.61;100.00
6433;BME280;3249;42.690;23.260;2023-04-09T09:55:21;94449.09;;;9.57;100.00
6433;BME280;3249;42.690;23.260;2023-04-09T09:58:08;94460.44;;;9.75;100.00
6433;BME280;3249;42.690;23.260;2023-04-09T10:00:45;94456.28;;;9.80;100.00
6433;BME280;3249;42.690;23.260;2023-04-09T10:03:24;94426.84;;;9.76;100.00
6433;BME280;3249;42.690;23.260;2023-04-09T10:05:57;94467.63;;;10.04;100.00
6433;BME280;3249;42.690;23.260;2023-04-09T10:08:27;94467.81;;;10.09;90.51
6433;BME280;3249;42.690;23.260;2023-04-09T10:10:59;94458.09;;;10.11;96.54
6433;BME280;3249;42.690;23.260;2023-04-09T10:13:34;94459.44;;;10.13;94.84
6433;BME280;3249;42.690;23.260;2023-04-09T10:16:04;94462.66;;;10.09;86.00
6433;BME280;3249;42.690;23.260;2023-04-09T10:18:33;94479.03;;;10.14;83.24
6433;BME280;3249;42.690;23.260;2023-04-09T10:21:13;94475.41;;;10.22;82.25
6433;BME280;3249;42.690;23.260;2023-04-09T10:23:43;94447.53;;;10.19;82.85
6433;BME280;3249;42.690;23.260;2023-04-09T10:26:17;94468.44;;;10.29;83.73
6433;BME280;3249;42.690;23.260;2023-04-09T10:29:02;94442.84;;;10.16;86.56
6433;BME280;3249;42.690;23.260;2023-04-09T10:32:02;94466.72;;;10.47;80.95
6433;BME280;3249;42.690;23.260;2023-04-09T10:34:35;94459.94;;;10.53;83.76
6433;BME280;3249;42.690;23.260;2023-04-09T10:37:06;94473.56;;;10.78;79.85
6433;BME280;3249;42.690;23.260;2023-04-09T10:39:39;94468.06;;;10.74;77.87
6433;BME280;3249;42.690;23.260;2023-04-09T10:42:12;94447.97;;;10.83;78.25
6433;BME280;3249;42.690;23.260;2023-04-09T10:44:44;94465.13;;;11.13;74.91
6433;BME280;3249;42.690;23.260;2023-04-09T10:47:30;94465.31;;;11.30;76.94
6433;BME280;3249;42.690;23.260;2023-04-09T10:50:14;94455.72;;;11.55;73.76
6433;BME280;3249;42.690;23.260;2023-04-09T10:52:43;94462.38;;;11.62;72.42
6433;BME280;3249;42.690;23.260;2023-04-09T10:55:35;94441.88;;;11.67;71.38
6433;BME280;3249;42.690;23.260;2023-04-09T10:58:04;94444.69;;;11.66;70.73
6433;BME280;3249;42.690;23.260;2023-04-09T11:00:39;94443.38;;;11.75;72.20
6433;BME280;3249;42.690;23.260;2023-04-09T11:03:20;94441.09;;;11.96;69.61
6433;BME280;3249;42.690;23.260;2023-04-09T11:05:56;94437.53;;;12.09;70.96
6433;BME280;3249;42.690;23.260;2023-04-09T11:08:30;94428.06;;;12.32;69.69
6433;BME280;3249;42.690;23.260;2023-04-09T11:11:00;94431.19;;;12.34;67.57
6433;BME280;3249;42.690;23.260;2023-04-09T11:13:30;94438.72;;;12.47;69.41
6433;BME280;3249;42.690;23.260;2023-04-09T11:16:02;94430.88;;;12.77;65.26
6433;BME280;3249;42.690;23.260;2023-04-09T11:18:33;94438.28;;;12.85;64.33
6433;BME280;3249;42.690;23.260;2023-04-09T11:21:02;94437.06;;;12.87;67.35
6433;BME280;3249;42.690;23.260;2023-04-09T11:23:31;94444.38;;;13.02;65.60
6433;BME280;3249;42.690;23.260;2023-04-09T11:26:00;94452.66;;;12.92;60.23
6433;BME280;3249;42.690;23.260;2023-04-09T11:28:30;94448.84;;;12.83;61.55
6433;BME280;3249;42.690;23.260;2023-04-09T11:30:59;94448.75;;;12.67;61.98
6433;BME280;3249;42.690;23.260;2023-04-09T11:33:34;94441.88;;;12.61;63.72
6433;BME280;3249;42.690;23.260;2023-04-09T11:36:04;94451.06;;;12.57;63.46
6433;BME280;3249;42.690;23.260;2023-04-09T11:38:36;94444.22;;;12.51;63.47
6433;BME280;3249;42.690;23.260;2023-04-09T11:41:06;94440.81;;;12.16;65.02
6433;BME280;3249;42.690;23.260;2023-04-09T11:43:37;94440.53;;;12.06;70.29
6433;BME280;3249;42.690;23.260;2023-04-09T11:46:07;94438.06;;;11.99;81.88
6433;BME280;3249;42.690;23.260;2023-04-09T11:48:39;94431.47;;;12.03;83.19
6433;BME280;3249;42.690;23.260;2023-04-09T11:51:08;94439.41;;;11.90;82.53
6433;BME280;3249;42.690;23.260;2023-04-09T11:53:37;94437.34;;;11.81;82.57
6433;BME280;3249;42.690;23.260;2023-04-09T11:56:06;94427.34;;;11.73;81.36
6433;BME280;3249;42.690;23.260;2023-04-09T11:58:36;94410.97;;;11.31;83.97
6433;BME280;3249;42.690;23.260;2023-04-09T12:01:05;94418.13;;;11.47;86.57
6433;BME280;3249;42.690;23.260;2023-04-09T12:03:34;94422.50;;;11.47;83.38
6433;BME280;3249;42.690;23.260;2023-04-09T12:06:06;94424.19;;;11.71;84.81
6433;BME280;3249;42.690;23.260;2023-04-09T12:08:36;94420.84;;;11.82;83.72
6433;BME280;3249;42.690;23.260;2023-04-09T12:11:08;94420.47;;;11.96;82.06
6433;BME280;3249;42.690;23.260;2023-04-09T12:13:38;94425.31;;;12.16;82.06
6433;BME280;3249;42.690;23.260;2023-04-09T12:16:09;94411.50;;;11.99;86.38
6433;BME280;3249;42.690;23.260;2023-04-09T12:18:39;94415.97;;;12.03;88.76
6433;BME280;3249;42.690;23.260;2023-04-09T12:21:10;94414.72;;;11.94;88.36
6433;BME280;3249;42.690;23.260;2023-04-09T12:23:39;94409.56;;;11.94;86.92
6433;BME280;3249;42.690;23.260;2023-04-09T12:26:08;94407.91;;;12.00;87.18
6433;BME280;3249;42.690;23.260;2023-04-09T12:28:38;94409.25;;;12.02;83.17
6433;BME280;3249;42.690;23.260;2023-04-09T12:31:08;94407.03;;;12.29;80.17
6433;BME280;3249;42.690;23.260;2023-04-09T12:33:37;94406.28;;;12.51;79.34
6433;BME280;3249;42.690;23.260;2023-04-09T12:36:10;94409.56;;;12.70;73.96
6433;BME280;3249;42.690;23.260;2023-04-09T12:38:39;94395.94;;;12.86;72.95
6433;BME280;3249;42.690;23.260;2023-04-09T12:41:08;94404.88;;;13.29;71.42
6433;BME280;3249;42.690;23.260;2023-04-09T12:43:38;94407.25;;;13.59;68.71
6433;BME280;3249;42.690;23.260;2023-04-09T12:46:08;94409.59;;;13.88;66.37
6433;BME280;3249;42.690;23.260;2023-04-09T12:48:37;94401.91;;;13.93;66.48
6433;BME280;3249;42.690;23.260;2023-04-09T12:51:06;94408.34;;;13.91;58.67
6433;BME280;3249;42.690;23.260;2023-04-09T12:53:39;94403.84;;;14.15;57.98
6433;BME280;3249;42.690;23.260;2023-04-09T12:56:08;94391.06;;;13.63;55.07
6433;BME280;3249;42.690;23.260;2023-04-09T12:58:37;94400.13;;;13.38;53.86
6433;BME280;3249;42.690;23.260;2023-04-09T13:01:06;94394.53;;;13.29;51.64
6433;BME280;3249;42.690;23.260;2023-04-09T13:03:35;94395.56;;;13.17;51.85
6433;BME280;3249;42.690;23.260;2023-04-09T13:06:06;94372.88;;;12.96;52.38
6433;BME280;3249;42.690;23.260;2023-04-09T13:08:34;94387.53;;;13.02;54.41
6433;BME280;3249;42.690;23.260;2023-04-09T13:11:06;94378.06;;;12.96;54.38
6433;BME280;3249;42.690;23.260;2023-04-09T13:13:36;94378.31;;;12.83;53.90
6433;BME280;3249;42.690;23.260;2023-04-09T13:16:05;94379.44;;;12.64;55.23
6433;BME280;3249;42.690;23.260;2023-04-09T13:18:35;94380.44;;;12.51;55.70
6433;BME280;3249;42.690;23.260;2023-04-09T13:21:04;94378.66;;;12.29;57.22
6433;BME280;3249;42.690;23.260;2023-04-09T13:23:33;94376.97;;;12.34;58.65
6433;BME280;3249;42.690;23.260;2023-04-09T13:26:02;94369.34;;;12.28;59.43
6433;BME280;3249;42.690;23.260;2023-04-09T13:28:34;94379.19;;;12.08;56.22
6433;BME280;3249;42.690;23.260;2023-04-09T13:31:04;94374.91;;;11.90;56.58
6433;BME280;3249;42.690;23.260;2023-04-09T13:33:33;94371.69;;;11.95;57.35
6433;BME280;3249;42.690;23.260;2023-04-09T13:36:03;94378.41;;;11.96;59.25
6433;BME280;3249;42.690;23.260;2023-04-09T13:38:32;94352.59;;;11.84;57.97
6433;BME280;3249;42.690;23.260;2023-04-09T13:41:02;94361.91;;;11.97;58.47
6433;BME280;3249;42.690;23.260;2023-04-09T13:43:34;94374.91;;;12.02;59.09